sensor_id;sensor_type;location;lat;lon;timestamp;P1;durP1;ratioP1;P2;durP2;ratioP2
18445;SDS011;9352;50.888;4.466;2023-04-15T00:01:26;14.57;;;5.68;;
18445;SDS011;9352;50.888;4.466;2023-04-15T00:03:54;18.63;;;5.40;;
18445;SDS011;9352;50.888;4.466;2023-04-15T00:06:21;20.30;;;6.40;;
18445;SDS011;9352;50.888;4.466;2023-04-15T00:08:48;11.05;;;4.97;;
18445;SDS011;9352;50.888;4.466;2023-04-15T00:11:17;10.85;;;5.43;;
18445;SDS011;9352;50.888;4.466;2023-04-15T00:13:44;17.55;;;6.13;;
18445;SDS011;9352;50.888;4.466;2023-04-15T00:16:11;17.83;;;5.70;;
18445;SDS011;9352;50.888;4.466;2023-04-15T00:18:38;26.25;;;5.82;;
18445;SDS011;9352;50.888;4.466;2023-04-15T00:21:05;11.73;;;4.90;;
18445;SDS011;9352;50.888;4.466;2023-04-15T00:23:32;11.80;;;4.93;;
18445;SDS011;9352;50.888;4.466;2023-04-15T00:26:00;15.95;;;5.53;;
18445;SDS011;9352;50.888;4.466;2023-04-15T00:28:28;14.95;;;5.07;;
18445;SDS011;9352;50.888;4.466;2023-04-15T00:30:56;21.60;;;5.30;;
18445;SDS011;9352;50.888;4.466;2023-04-15T00:33:23;13.38;;;4.97;;
18445;SDS011;9352;50.888;4.466;2023-04-15T00:35:50;15.25;;;4.88;;
18445;SDS011;9352;50.888;4.466;2023-04-15T00:38:17;10.75;;;4.60;;
18445;SDS011;9352;50.888;4.466;2023-04-15T00:40:44;8.15;;;3.83;;
18445;SDS011;9352;50.888;4.466;2023-04-15T00:43:11;6.07;;;3.85;;
18445;SDS011;9352;50.888;4.466;2023-04-15T00:45:39;11.73;;;4.10;;
18445;SDS011;9352;50.888;4.466;2023-04-15T00:48:07;11.65;;;4.22;;
18445;SDS011;9352;50.888;4.466;2023-04-15T00:50:34;11.95;;;3.97;;
18445;SDS011;9352;50.888;4.466;2023-04-15T00:53:01;5.60;;;3.85;;
18445;SDS011;9352;50.888;4.466;2023-04-15T00:55:28;6.03;;;3.47;;
18445;SDS011;9352;50.888;4.466;2023-04-15T00:57:55;7.10;;;3.45;;
18445;SDS011;9352;50.888;4.466;2023-04-15T01:00:22;7.20;;;3.75;;
18445;SDS011;9352;50.888;4.466;2023-04-15T01:02:52;6.00;;;3.33;;
18445;SDS011;9352;50.888;4.466;2023-04-15T01:05:19;6.15;;;3.70;;
18445;SDS011;9352;50.888;4.466;2023-04-15T01:07:46;5.80;;;3.60;;
18445;SDS011;9352;50.888;4.466;2023-04-15T01:10:13;4.68;;;3.38;;
18445;SDS011;9352;50.888;4.466;2023-04-15T01:12:40;3.92;;;3.22;;
18445;SDS011;9352;50.888;4.466;2023-04-15T01:15:07;5.07;;;3.22;;
18445;SDS011;9352;50.888;4.466;2023-04-15T01:17:35;3.35;;;3.10;;
18445;SDS011;9352;50.888;4.466;2023-04-15T01:20:04;4.65;;;2.70;;
18445;SDS011;9352;50.888;4.466;2023-04-15T01:22:34;3.75;;;3.08;;
18445;SDS011;9352;50.888;4.466;2023-04-15T01:25:04;3.13;;;2.80;;
18445;SDS011;9352;50.888;4.466;2023-04-15T01:27:36;3.60;;;2.55;;
18445;SDS011;9352;50.888;4.466;2023-04-15T01:30:05;3.80;;;2.92;;
18445;SDS011;9352;50.888;4.466;2023-04-15T01:32:33;6.00;;;3.10;;
18445;SDS011;9352;50.888;4.466;2023-04-15T01:35:00;7.25;;;2.72;;
18445;SDS011;9352;50.888;4.466;2023-04-15T01:37:27;4.35;;;2.78;;
18445;SDS011;9352;50.888;4.466;2023-04-15T01:39:54;6.03;;;2.92;;
18445;SDS011;9352;50.888;4.466;2023-04-15T01:42:22;4.45;;;2.97;;
18445;SDS011;9352;50.888;4.466;2023-04-15T01:44:50;3.95;;;3.00;;
18445;SDS011;9352;50.888;4.466;2023-04-15T01:47:17;4.32;;;3.13;;
18445;SDS011;9352;50.888;4.466;2023-04-15T01:49:44;4.53;;;3.22;;
18445;SDS011;9352;50.888;4.466;2023-04-15T01:52:11;4.60;;;3.33;;
18445;SDS011;9352;50.888;4.466;2023-04-15T01:54:38;4.00;;;3.35;;
18445;SDS011;9352;50.888;4.466;2023-04-15T01:57:05;5.63;;;3.50;;
18445;SDS011;9352;50.888;4.466;2023-04-15T01:59:32;7.93;;;4.20;;
18445;SDS011;9352;50.888;4.466;2023-04-15T02:02:00;5.57;;;3.80;;
18445;SDS011;9352;50.888;4.466;2023-04-15T02:04:27;6.50;;;4.03;;
18445;SDS011;9352;50.888;4.466;2023-04-15T02:06:54;7.78;;;4.22;;
18445;SDS011;9352;50.888;4.466;2023-04-15T02:09:21;9.98;;;4.45;;
18445;SDS011;9352;50.888;4.466;2023-04-15T02:11:49;9.82;;;4.97;;
18445;SDS011;9352;50.888;4.466;2023-04-15T02:14:17;10.55;;;4.88;;
18445;SDS011;9352;50.888;4.466;2023-04-15T02:16:43;10.25;;;4.72;;
18445;SDS011;9352;50.888;4.466;2023-04-15T02:19:12;8.15;;;4.70;;
18445;SDS011;9352;50.888;4.466;2023-04-15T02:21:39;9.75;;;5.50;;
18445;SDS011;9352;50.888;4.466;2023-04-15T02:24:06;14.85;;;5.72;;
18445;SDS011;9352;50.888;4.466;2023-04-15T02:26:33;10.15;;;5.95;;
18445;SDS011;9352;50.888;4.466;2023-04-15T02:29:00;12.32;;;5.32;;
18445;SDS011;9352;50.888;4.466;2023-04-15T02:31:27;18.77;;;6.60;;
18445;SDS011;9352;50.888;4.466;2023-04-15T02:33:53;13.50;;;6.72;;
18445;SDS011;9352;50.888;4.466;2023-04-15T02:36:22;14.25;;;6.40;;
18445;SDS011;9352;50.888;4.466;2023-04-15T02:38:48;16.05;;;6.65;;
18445;SDS011;9352;50.888;4.466;2023-04-15T02:41:15;13.23;;;6.75;;
18445;SDS011;9352;50.888;4.466;2023-04-15T02:43:42;17.77;;;7.10;;
18445;SDS011;9352;50.888;4.466;2023-04-15T02:46:09;15.57;;;7.45;;
18445;SDS011;9352;50.888;4.466;2023-04-15T02:48:38;11.13;;;6.40;;
18445;SDS011;9352;50.888;4.466;2023-04-15T02:51:12;13.70;;;6.20;;
18445;SDS011;9352;50.888;4.466;2023-04-15T02:53:41;12.63;;;6.50;;
18445;SDS011;9352;50.888;4.466;2023-04-15T02:56:08;14.05;;;5.88;;
18445;SDS011;9352;50.888;4.466;2023-04-15T02:58:35;13.23;;;6.18;;
18445;SDS011;9352;50.888;4.466;2023-04-15T03:01:02;14.82;;;6.68;;
18445;SDS011;9352;50.888;4.466;2023-04-15T03:03:29;13.30;;;6.72;;
18445;SDS011;9352;50.888;4.466;2023-04-15T03:05:56;13.73;;;6.35;;
18445;SDS011;9352;50.888;4.466;2023-04-15T03:08:23;12.50;;;6.32;;
18445;SDS011;9352;50.888;4.466;2023-04-15T03:10:51;10.95;;;6.30;;
18445;SDS011;9352;50.888;4.466;2023-04-15T03:13:19;13.68;;;6.68;;
18445;SDS011;9352;50.888;4.466;2023-04-15T03:15:46;10.45;;;6.15;;
18445;SDS011;9352;50.888;4.466;2023-04-15T03:18:13;10.60;;;5.85;;
18445;SDS011;9352;50.888;4.466;2023-04-15T03:20:40;9.05;;;6.00;;
18445;SDS011;9352;50.888;4.466;2023-04-15T03:23:06;15.20;;;6.18;;
18445;SDS011;9352;50.888;4.466;2023-04-15T03:25:33;12.13;;;6.28;;
18445;SDS011;9352;50.888;4.466;2023-04-15T03:28:02;12.27;;;6.47;;
18445;SDS011;9352;50.888;4.466;2023-04-15T03:30:30;9.98;;;6.35;;
18445;SDS011;9352;50.888;4.466;2023-04-15T03:32:57;8.15;;;5.70;;
18445;SDS011;9352;50.888;4.466;2023-04-15T03:35:23;10.43;;;7.05;;
18445;SDS011;9352;50.888;4.466;2023-04-15T03:37:50;11.52;;;6.65;;
18445;SDS011;9352;50.888;4.466;2023-04-15T03:40:17;13.98;;;7.20;;
18445;SDS011;9352;50.888;4.466;2023-04-15T03:42:44;8.55;;;6.32;;
18445;SDS011;9352;50.888;4.466;2023-04-15T03:45:12;11.88;;;6.93;;
18445;SDS011;9352;50.888;4.466;2023-04-15T03:47:39;11.27;;;6.55;;
18445;SDS011;9352;50.888;4.466;2023-04-15T03:50:07;12.75;;;6.60;;
18445;SDS011;9352;50.888;4.466;2023-04-15T03:52:34;10.07;;;6.72;;
18445;SDS011;9352;50.888;4.466;2023-04-15T03:55:00;9.77;;;6.28;;
18445;SDS011;9352;50.888;4.466;2023-04-15T03:57:27;11.27;;;6.63;;
18445;SDS011;9352;50.888;4.466;2023-04-15T03:59:54;12.57;;;6.97;;
18445;SDS011;9352;50.888;4.466;2023-04-15T04:02:22;10.38;;;6.60;;
18445;SDS011;9352;50.888;4.466;2023-04-15T04:04:49;8.38;;;6.22;;
18445;SDS011;9352;50.888;4.466;2023-04-15T04:07:16;11.10;;;6.60;;
18445;SDS011;9352;50.888;4.466;2023-04-15T04:09:43;12.48;;;6.95;;
18445;SDS011;9352;50.888;4.466;2023-04-15T04:12:10;15.02;;;6.93;;
18445;SDS011;9352;50.888;4.466;2023-04-15T04:14:37;9.70;;;6.72;;
18445;SDS011;9352;50.888;4.466;2023-04-15T04:17:04;10.98;;;6.72;;
18445;SDS011;9352;50.888;4.466;2023-04-15T04:19:32;10.88;;;6.15;;
18445;SDS011;9352;50.888;4.466;2023-04-15T04:21:59;11.38;;;6.38;;
18445;SDS011;9352;50.888;4.466;2023-04-15T04:24:26;12.35;;;6.93;;
18445;SDS011;9352;50.888;4.466;2023-04-15T04:26:53;10.90;;;7.00;;
18445;SDS011;9352;50.888;4.466;2023-04-15T04:29:20;10.18;;;6.07;;
18445;SDS011;9352;50.888;4.466;2023-04-15T04:31:47;7.85;;;5.78;;
18445;SDS011;9352;50.888;4.466;2023-04-15T04:34:14;8.50;;;5.95;;
18445;SDS011;9352;50.888;4.466;2023-04-15T04:36:42;10.48;;;6.10;;
18445;SDS011;9352;50.888;4.466;2023-04-15T04:39:09;7.97;;;5.90;;
18445;SDS011;9352;50.888;4.466;2023-04-15T04:41:36;13.68;;;6.47;;
18445;SDS011;9352;50.888;4.466;2023-04-15T04:44:03;11.93;;;6.40;;
18445;SDS011;9352;50.888;4.466;2023-04-15T04:46:30;9.15;;;6.25;;
18445;SDS011;9352;50.888;4.466;2023-04-15T04:48:57;10.95;;;6.50;;
18445;SDS011;9352;50.888;4.466;2023-04-15T04:51:23;13.25;;;6.13;;
18445;SDS011;9352;50.888;4.466;2023-04-15T04:53:53;13.38;;;6.45;;
18445;SDS011;9352;50.888;4.466;2023-04-15T04:56:21;19.55;;;7.18;;
18445;SDS011;9352;50.888;4.466;2023-04-15T04:58:48;11.27;;;6.20;;
18445;SDS011;9352;50.888;4.466;2023-04-15T05:01:15;12.00;;;7.15;;
18445;SDS011;9352;50.888;4.466;2023-04-15T05:03:42;9.70;;;6.68;;
18445;SDS011;9352;50.888;4.466;2023-04-15T05:06:09;9.68;;;6.80;;
18445;SDS011;9352;50.888;4.466;2023-04-15T05:08:36;10.77;;;7.57;;
18445;SDS011;9352;50.888;4.466;2023-04-15T05:11:06;13.80;;;7.38;;
18445;SDS011;9352;50.888;4.466;2023-04-15T05:13:33;12.98;;;7.95;;
18445;SDS011;9352;50.888;4.466;2023-04-15T05:16:02;14.50;;;7.97;;
18445;SDS011;9352;50.888;4.466;2023-04-15T05:18:30;15.50;;;7.28;;
18445;SDS011;9352;50.888;4.466;2023-04-15T05:20:57;12.75;;;7.15;;
18445;SDS011;9352;50.888;4.466;2023-04-15T05:23:24;12.68;;;7.07;;
18445;SDS011;9352;50.888;4.466;2023-04-15T05:25:51;13.68;;;7.53;;
18445;SDS011;9352;50.888;4.466;2023-04-15T05:28:19;11.93;;;7.18;;
18445;SDS011;9352;50.888;4.466;2023-04-15T05:30:46;13.35;;;7.95;;
18445;SDS011;9352;50.888;4.466;2023-04-15T05:33:13;15.55;;;7.05;;
18445;SDS011;9352;50.888;4.466;2023-04-15T05:35:40;14.65;;;6.85;;
18445;SDS011;9352;50.888;4.466;2023-04-15T05:38:07;9.98;;;6.40;;
18445;SDS011;9352;50.888;4.466;2023-04-15T05:40:33;11.77;;;6.70;;
18445;SDS011;9352;50.888;4.466;2023-04-15T05:43:00;12.30;;;6.38;;
18445;SDS011;9352;50.888;4.466;2023-04-15T05:45:29;13.23;;;6.50;;
18445;SDS011;9352;50.888;4.466;2023-04-15T05:47:55;11.40;;;6.70;;
18445;SDS011;9352;50.888;4.466;2023-04-15T05:50:22;10.38;;;6.30;;
18445;SDS011;9352;50.888;4.466;2023-04-15T05:52:49;14.75;;;6.68;;
18445;SDS011;9352;50.888;4.466;2023-04-15T05:55:16;17.73;;;6.63;;
18445;SDS011;9352;50.888;4.466;2023-04-15T05:57:43;12.15;;;6.10;;
18445;SDS011;9352;50.888;4.466;2023-04-15T06:00:10;9.68;;;6.28;;
18445;SDS011;9352;50.888;4.466;2023-04-15T06:02:39;11.93;;;6.53;;
18445;SDS011;9352;50.888;4.466;2023-04-15T06:05:07;15.32;;;6.70;;
18445;SDS011;9352;50.888;4.466;2023-04-15T06:07:35;13.52;;;6.32;;
18445;SDS011;9352;50.888;4.466;2023-04-15T06:10:03;13.18;;;6.70;;
18445;SDS011;9352;50.888;4.466;2023-04-15T06:12:30;12.50;;;6.43;;
18445;SDS011;9352;50.888;4.466;2023-04-15T06:14:57;11.05;;;6.13;;
18445;SDS011;9352;50.888;4.466;2023-04-15T06:17:24;8.77;;;6.03;;
18445;SDS011;9352;50.888;4.466;2023-04-15T06:19:52;12.80;;;5.95;;
18445;SDS011;9352;50.888;4.466;2023-04-15T06:22:20;9.85;;;6.03;;
18445;SDS011;9352;50.888;4.466;2023-04-15T06:24:47;13.10;;;6.20;;
18445;SDS011;9352;50.888;4.466;2023-04-15T06:27:15;11.75;;;6.00;;
18445;SDS011;9352;50.888;4.466;2023-04-15T06:29:42;10.85;;;5.55;;
18445;SDS011;9352;50.888;4.466;2023-04-15T06:32:09;11.98;;;5.70;;
18445;SDS011;9352;50.888;4.466;2023-04-15T06:34:37;13.13;;;5.20;;
18445;SDS011;9352;50.888;4.466;2023-04-15T06:37:05;9.25;;;5.45;;
18445;SDS011;9352;50.888;4.466;2023-04-15T06:39:34;10.30;;;5.85;;
18445;SDS011;9352;50.888;4.466;2023-04-15T06:42:01;12.98;;;5.93;;
18445;SDS011;9352;50.888;4.466;2023-04-15T06:44:31;11.20;;;5.68;;
18445;SDS011;9352;50.888;4.466;2023-04-15T06:46:57;10.05;;;5.97;;
18445;SDS011;9352;50.888;4.466;2023-04-15T06:49:24;10.85;;;6.50;;
18445;SDS011;9352;50.888;4.466;2023-04-15T06:51:52;14.75;;;6.35;;
18445;SDS011;9352;50.888;4.466;2023-04-15T06:54:20;15.10;;;6.45;;
18445;SDS011;9352;50.888;4.466;2023-04-15T06:56:47;20.15;;;6.00;;
18445;SDS011;9352;50.888;4.466;2023-04-15T06:59:15;12.77;;;6.35;;
18445;SDS011;9352;50.888;4.466;2023-04-15T07:01:43;11.77;;;6.03;;
18445;SDS011;9352;50.888;4.466;2023-04-15T07:04:09;14.27;;;6.03;;
18445;SDS011;9352;50.888;4.466;2023-04-15T07:06:37;11.52;;;6.07;;
18445;SDS011;9352;50.888;4.466;2023-04-15T07:09:04;13.32;;;6.53;;
18445;SDS011;9352;50.888;4.466;2023-04-15T07:11:32;11.23;;;5.88;;
18445;SDS011;9352;50.888;4.466;2023-04-15T07:13:59;13.18;;;6.70;;
18445;SDS011;9352;50.888;4.466;2023-04-15T07:16:26;9.93;;;6.38;;
18445;SDS011;9352;50.888;4.466;2023-04-15T07:18:53;15.13;;;6.78;;
18445;SDS011;9352;50.888;4.466;2023-04-15T07:21:19;13.38;;;6.78;;
18445;SDS011;9352;50.888;4.466;2023-04-15T07:23:46;12.85;;;6.10;;
18445;SDS011;9352;50.888;4.466;2023-04-15T07:26:13;16.73;;;7.32;;
18445;SDS011;9352;50.888;4.466;2023-04-15T07:28:42;12.18;;;7.38;;
18445;SDS011;9352;50.888;4.466;2023-04-15T07:31:10;15.63;;;7.20;;
18445;SDS011;9352;50.888;4.466;2023-04-15T07:33:37;17.20;;;7.82;;
18445;SDS011;9352;50.888;4.466;2023-04-15T07:36:04;16.52;;;7.50;;
18445;SDS011;9352;50.888;4.466;2023-04-15T07:38:31;17.38;;;8.00;;
18445;SDS011;9352;50.888;4.466;2023-04-15T07:40:58;13.32;;;7.68;;
18445;SDS011;9352;50.888;4.466;2023-04-15T07:43:25;14.15;;;7.80;;
18445;SDS011;9352;50.888;4.466;2023-04-15T07:45:53;16.02;;;8.75;;
18445;SDS011;9352;50.888;4.466;2023-04-15T07:48:20;16.67;;;9.20;;
18445;SDS011;9352;50.888;4.466;2023-04-15T07:50:47;17.02;;;8.93;;
18445;SDS011;9352;50.888;4.466;2023-04-15T07:53:14;18.48;;;9.00;;
18445;SDS011;9352;50.888;4.466;2023-04-15T07:55:41;16.38;;;8.98;;
18445;SDS011;9352;50.888;4.466;2023-04-15T07:58:08;15.95;;;9.48;;
18445;SDS011;9352;50.888;4.466;2023-04-15T08:00:35;19.50;;;9.60;;
18445;SDS011;9352;50.888;4.466;2023-04-15T08:03:04;16.35;;;9.27;;
18445;SDS011;9352;50.888;4.466;2023-04-15T08:05:31;16.70;;;9.50;;
18445;SDS011;9352;50.888;4.466;2023-04-15T08:07:58;16.23;;;9.18;;
18445;SDS011;9352;50.888;4.466;2023-04-15T08:10:25;18.15;;;9.10;;
18445;SDS011;9352;50.888;4.466;2023-04-15T08:12:53;21.15;;;10.48;;
18445;SDS011;9352;50.888;4.466;2023-04-15T08:15:20;15.27;;;9.00;;
18445;SDS011;9352;50.888;4.466;2023-04-15T08:17:47;16.40;;;9.40;;
18445;SDS011;9352;50.888;4.466;2023-04-15T08:20:16;18.73;;;9.80;;
18445;SDS011;9352;50.888;4.466;2023-04-15T08:22:42;15.13;;;9.68;;
18445;SDS011;9352;50.888;4.466;2023-04-15T08:25:10;23.10;;;10.18;;
18445;SDS011;9352;50.888;4.466;2023-04-15T08:27:37;16.35;;;9.95;;
18445;SDS011;9352;50.888;4.466;2023-04-15T08:30:04;19.38;;;9.73;;
18445;SDS011;9352;50.888;4.466;2023-04-15T08:32:32;16.92;;;9.73;;
18445;SDS011;9352;50.888;4.466;2023-04-15T08:34:59;21.08;;;10.02;;
18445;SDS011;9352;50.888;4.466;2023-04-15T08:37:27;18.88;;;9.45;;
18445;SDS011;9352;50.888;4.466;2023-04-15T08:39:54;20.00;;;9.32;;
18445;SDS011;9352;50.888;4.466;2023-04-15T08:42:22;14.88;;;9.07;;
18445;SDS011;9352;50.888;4.466;2023-04-15T08:44:53;21.17;;;9.48;;
18445;SDS011;9352;50.888;4.466;2023-04-15T08:47:20;16.75;;;9.70;;
18445;SDS011;9352;50.888;4.466;2023-04-15T08:49:51;14.82;;;9.50;;
18445;SDS011;9352;50.888;4.466;2023-04-15T08:52:20;17.83;;;9.75;;
18445;SDS011;9352;50.888;4.466;2023-04-15T08:54:48;23.30;;;10.02;;
18445;SDS011;9352;50.888;4.466;2023-04-15T08:57:15;21.80;;;9.20;;
18445;SDS011;9352;50.888;4.466;2023-04-15T08:59:42;18.33;;;9.25;;
18445;SDS011;9352;50.888;4.466;2023-04-15T09:02:10;14.88;;;8.23;;
18445;SDS011;9352;50.888;4.466;2023-04-15T09:04:37;25.88;;;8.43;;
18445;SDS011;9352;50.888;4.466;2023-04-15T09:07:04;16.77;;;8.18;;
18445;SDS011;9352;50.888;4.466;2023-04-15T09:09:31;17.52;;;7.18;;
18445;SDS011;9352;50.888;4.466;2023-04-15T09:11:59;13.02;;;6.50;;
18445;SDS011;9352;50.888;4.466;2023-04-15T09:14:27;11.50;;;6.97;;
18445;SDS011;9352;50.888;4.466;2023-04-15T09:16:56;11.35;;;6.10;;
18445;SDS011;9352;50.888;4.466;2023-04-15T09:19:24;13.38;;;5.72;;
18445;SDS011;9352;50.888;4.466;2023-04-15T09:21:51;7.93;;;5.13;;
18445;SDS011;9352;50.888;4.466;2023-04-15T09:24:19;8.57;;;5.68;;
18445;SDS011;9352;50.888;4.466;2023-04-15T09:26:46;15.88;;;5.32;;
18445;SDS011;9352;50.888;4.466;2023-04-15T09:29:18;9.02;;;5.28;;
18445;SDS011;9352;50.888;4.466;2023-04-15T09:31:46;8.00;;;5.50;;
18445;SDS011;9352;50.888;4.466;2023-04-15T09:34:13;9.32;;;5.70;;
18445;SDS011;9352;50.888;4.466;2023-04-15T09:36:50;6.65;;;5.50;;
18445;SDS011;9352;50.888;4.466;2023-04-15T09:39:19;9.45;;;5.28;;
18445;SDS011;9352;50.888;4.466;2023-04-15T09:41:46;5.50;;;4.03;;
18445;SDS011;9352;50.888;4.466;2023-04-15T09:44:32;5.88;;;3.55;;
18445;SDS011;9352;50.888;4.466;2023-04-15T09:46:59;6.65;;;4.10;;
18445;SDS011;9352;50.888;4.466;2023-04-15T09:49:26;7.70;;;4.40;;
18445;SDS011;9352;50.888;4.466;2023-04-15T09:51:56;5.55;;;4.35;;
18445;SDS011;9352;50.888;4.466;2023-04-15T09:54:25;5.45;;;4.57;;
18445;SDS011;9352;50.888;4.466;2023-04-15T09:57:05;6.03;;;5.18;;
18445;SDS011;9352;50.888;4.466;2023-04-15T09:59:34;10.40;;;5.32;;
18445;SDS011;9352;50.888;4.466;2023-04-15T10:02:02;8.57;;;5.25;;
18445;SDS011;9352;50.888;4.466;2023-04-15T10:04:31;10.57;;;5.40;;
18445;SDS011;9352;50.888;4.466;2023-04-15T10:07:00;5.78;;;4.97;;
18445;SDS011;9352;50.888;4.466;2023-04-15T10:09:30;5.60;;;4.50;;
18445;SDS011;9352;50.888;4.466;2023-04-15T10:11:58;5.13;;;4.70;;
18445;SDS011;9352;50.888;4.466;2023-04-15T10:14:25;9.95;;;4.57;;
18445;SDS011;9352;50.888;4.466;2023-04-15T10:16:59;5.13;;;4.60;;
18445;SDS011;9352;50.888;4.466;2023-04-15T10:19:27;4.43;;;3.88;;
18445;SDS011;9352;50.888;4.466;2023-04-15T10:21:58;8.80;;;4.53;;
18445;SDS011;9352;50.888;4.466;2023-04-15T10:24:26;5.25;;;4.10;;
18445;SDS011;9352;50.888;4.466;2023-04-15T10:26:53;4.30;;;3.90;;
18445;SDS011;9352;50.888;4.466;2023-04-15T10:29:22;7.38;;;4.18;;
18445;SDS011;9352;50.888;4.466;2023-04-15T10:31:51;4.30;;;3.90;;
18445;SDS011;9352;50.888;4.466;2023-04-15T10:34:21;6.93;;;3.30;;
18445;SDS011;9352;50.888;4.466;2023-04-15T10:36:49;4.60;;;2.97;;
18445;SDS011;9352;50.888;4.466;2023-04-15T10:42:09;3.70;;;2.50;;
18445;SDS011;9352;50.888;4.466;2023-04-15T10:44:38;2.92;;;2.60;;
18445;SDS011;9352;50.888;4.466;2023-04-15T10:47:10;7.97;;;3.50;;
18445;SDS011;9352;50.888;4.466;2023-04-15T10:49:46;3.47;;;2.80;;
18445;SDS011;9352;50.888;4.466;2023-04-15T10:52:14;3.72;;;2.90;;
18445;SDS011;9352;50.888;4.466;2023-04-15T10:54:42;5.82;;;2.90;;
18445;SDS011;9352;50.888;4.466;2023-04-15T10:57:14;3.58;;;2.40;;
18445;SDS011;9352;50.888;4.466;2023-04-15T10:59:59;2.65;;;2.45;;
18445;SDS011;9352;50.888;4.466;2023-04-15T11:02:38;6.50;;;2.83;;
18445;SDS011;9352;50.888;4.466;2023-04-15T11:05:11;5.40;;;3.10;;
18445;SDS011;9352;50.888;4.466;2023-04-15T11:07:39;4.07;;;3.70;;
18445;SDS011;9352;50.888;4.466;2023-04-15T11:13:21;4.95;;;3.17;;
18445;SDS011;9352;50.888;4.466;2023-04-15T11:15:53;3.47;;;3.28;;
18445;SDS011;9352;50.888;4.466;2023-04-15T11:18:23;2.97;;;2.78;;
18445;SDS011;9352;50.888;4.466;2023-04-15T11:20:54;3.05;;;2.60;;
18445;SDS011;9352;50.888;4.466;2023-04-15T11:26:05;3.08;;;2.85;;
18445;SDS011;9352;50.888;4.466;2023-04-15T11:28:36;2.75;;;2.55;;
18445;SDS011;9352;50.888;4.466;2023-04-15T11:31:08;2.50;;;2.40;;
18445;SDS011;9352;50.888;4.466;2023-04-15T11:33:38;3.05;;;2.85;;
18445;SDS011;9352;50.888;4.466;2023-04-15T11:36:12;2.75;;;2.55;;
18445;SDS011;9352;50.888;4.466;2023-04-15T11:38:41;2.78;;;2.63;;
18445;SDS011;9352;50.888;4.466;2023-04-15T11:41:09;3.78;;;3.00;;
18445;SDS011;9352;50.888;4.466;2023-04-15T11:43:36;3.00;;;2.67;;
18445;SDS011;9352;50.888;4.466;2023-04-15T11:46:03;5.90;;;2.45;;
18445;SDS011;9352;50.888;4.466;2023-04-15T11:48:31;2.80;;;2.60;;
18445;SDS011;9352;50.888;4.466;2023-04-15T11:50:59;4.63;;;2.85;;
18445;SDS011;9352;50.888;4.466;2023-04-15T11:53:36;3.45;;;2.60;;
18445;SDS011;9352;50.888;4.466;2023-04-15T11:56:05;3.20;;;2.90;;
18445;SDS011;9352;50.888;4.466;2023-04-15T11:58:33;4.65;;;2.40;;
18445;SDS011;9352;50.888;4.466;2023-04-15T12:01:02;5.38;;;3.33;;
18445;SDS011;9352;50.888;4.466;2023-04-15T12:03:30;3.47;;;2.60;;
18445;SDS011;9352;50.888;4.466;2023-04-15T12:06:02;3.00;;;2.70;;
18445;SDS011;9352;50.888;4.466;2023-04-15T12:08:55;2.20;;;2.10;;
18445;SDS011;9352;50.888;4.466;2023-04-15T12:11:30;2.45;;;2.25;;
18445;SDS011;9352;50.888;4.466;2023-04-15T12:14:02;2.60;;;2.50;;
18445;SDS011;9352;50.888;4.466;2023-04-15T12:16:32;3.00;;;2.72;;
18445;SDS011;9352;50.888;4.466;2023-04-15T12:19:03;2.75;;;2.60;;
18445;SDS011;9352;50.888;4.466;2023-04-15T12:21:35;3.20;;;2.90;;
18445;SDS011;9352;50.888;4.466;2023-04-15T12:24:05;2.70;;;2.50;;
18445;SDS011;9352;50.888;4.466;2023-04-15T12:26:34;2.30;;;2.20;;
18445;SDS011;9352;50.888;4.466;2023-04-15T12:29:03;2.92;;;2.58;;
18445;SDS011;9352;50.888;4.466;2023-04-15T12:31:31;3.70;;;2.80;;
18445;SDS011;9352;50.888;4.466;2023-04-15T12:33:59;2.85;;;2.75;;
18445;SDS011;9352;50.888;4.466;2023-04-15T12:36:26;2.70;;;2.50;;
18445;SDS011;9352;50.888;4.466;2023-04-15T12:38:54;2.53;;;2.33;;
18445;SDS011;9352;50.888;4.466;2023-04-15T12:41:22;3.20;;;2.20;;
18445;SDS011;9352;50.888;4.466;2023-04-15T12:43:49;3.22;;;2.30;;
18445;SDS011;9352;50.888;4.466;2023-04-15T12:46:16;4.68;;;2.38;;
18445;SDS011;9352;50.888;4.466;2023-04-15T12:48:44;2.13;;;1.73;;
18445;SDS011;9352;50.888;4.466;2023-04-15T12:51:11;4.60;;;2.50;;
18445;SDS011;9352;50.888;4.466;2023-04-15T12:53:38;3.08;;;2.70;;
18445;SDS011;9352;50.888;4.466;2023-04-15T12:56:05;3.55;;;2.47;;
18445;SDS011;9352;50.888;4.466;2023-04-15T12:58:34;3.03;;;2.75;;
18445;SDS011;9352;50.888;4.466;2023-04-15T13:01:01;2.33;;;2.20;;
18445;SDS011;9352;50.888;4.466;2023-04-15T13:03:28;4.07;;;2.20;;
18445;SDS011;9352;50.888;4.466;2023-04-15T13:05:55;2.60;;;2.50;;
18445;SDS011;9352;50.888;4.466;2023-04-15T13:08:22;2.50;;;2.30;;
18445;SDS011;9352;50.888;4.466;2023-04-15T13:10:49;2.50;;;2.30;;
18445;SDS011;9352;50.888;4.466;2023-04-15T13:13:16;2.85;;;2.60;;
18445;SDS011;9352;50.888;4.466;2023-04-15T13:15:44;2.40;;;2.30;;
18445;SDS011;9352;50.888;4.466;2023-04-15T13:18:11;3.35;;;2.47;;
18445;SDS011;9352;50.888;4.466;2023-04-15T13:20:38;2.58;;;2.38;;
18445;SDS011;9352;50.888;4.466;2023-04-15T13:23:05;4.05;;;3.05;;
18445;SDS011;9352;50.888;4.466;2023-04-15T13:25:32;3.35;;;2.70;;
18445;SDS011;9352;50.888;4.466;2023-04-15T13:27:59;4.07;;;2.63;;
18445;SDS011;9352;50.888;4.466;2023-04-15T13:30:26;3.08;;;2.85;;
18445;SDS011;9352;50.888;4.466;2023-04-15T13:32:54;4.97;;;2.67;;
18445;SDS011;9352;50.888;4.466;2023-04-15T13:35:21;3.00;;;2.70;;
18445;SDS011;9352;50.888;4.466;2023-04-15T13:37:48;3.88;;;2.45;;
18445;SDS011;9352;50.888;4.466;2023-04-15T13:40:15;2.88;;;2.38;;
18445;SDS011;9352;50.888;4.466;2023-04-15T13:42:42;5.95;;;2.50;;
18445;SDS011;9352;50.888;4.466;2023-04-15T13:45:09;2.92;;;2.00;;
18445;SDS011;9352;50.888;4.466;2023-04-15T13:47:36;2.78;;;2.15;;
18445;SDS011;9352;50.888;4.466;2023-04-15T13:50:05;3.53;;;1.98;;
18445;SDS011;9352;50.888;4.466;2023-04-15T13:52:33;18.65;;;2.45;;
18445;SDS011;9352;50.888;4.466;2023-04-15T13:54:59;3.25;;;2.00;;
18445;SDS011;9352;50.888;4.466;2023-04-15T13:57:27;2.17;;;2.05;;
18445;SDS011;9352;50.888;4.466;2023-04-15T13:59:54;1.67;;;1.60;;
18445;SDS011;9352;50.888;4.466;2023-04-15T14:02:20;5.65;;;1.92;;
18445;SDS011;9352;50.888;4.466;2023-04-15T14:04:48;2.60;;;2.00;;
18445;SDS011;9352;50.888;4.466;2023-04-15T14:07:16;3.00;;;2.33;;
18445;SDS011;9352;50.888;4.466;2023-04-15T14:09:43;3.88;;;2.38;;
18445;SDS011;9352;50.888;4.466;2023-04-15T14:12:10;6.28;;;2.28;;
18445;SDS011;9352;50.888;4.466;2023-04-15T14:14:37;2.33;;;2.00;;
18445;SDS011;9352;50.888;4.466;2023-04-15T14:17:03;3.63;;;1.52;;
18445;SDS011;9352;50.888;4.466;2023-04-15T14:19:30;2.28;;;1.20;;
18445;SDS011;9352;50.888;4.466;2023-04-15T14:21:58;1.48;;;1.30;;
18445;SDS011;9352;50.888;4.466;2023-04-15T14:24:26;6.20;;;1.50;;
18445;SDS011;9352;50.888;4.466;2023-04-15T14:26:53;1.52;;;1.27;;
18445;SDS011;9352;50.888;4.466;2023-04-15T14:29:20;2.97;;;1.20;;
18445;SDS011;9352;50.888;4.466;2023-04-15T14:31:47;1.13;;;1.10;;
18445;SDS011;9352;50.888;4.466;2023-04-15T14:34:15;1.70;;;1.30;;
18445;SDS011;9352;50.888;4.466;2023-04-15T14:36:42;1.35;;;1.23;;
18445;SDS011;9352;50.888;4.466;2023-04-15T14:39:10;4.22;;;1.48;;
18445;SDS011;9352;50.888;4.466;2023-04-15T14:41:40;5.82;;;1.40;;
18445;SDS011;9352;50.888;4.466;2023-04-15T14:44:07;1.88;;;1.50;;
18445;SDS011;9352;50.888;4.466;2023-04-15T14:46:35;3.15;;;1.60;;
18445;SDS011;9352;50.888;4.466;2023-04-15T14:49:02;1.85;;;1.38;;
18445;SDS011;9352;50.888;4.466;2023-04-15T14:51:29;4.10;;;1.60;;
18445;SDS011;9352;50.888;4.466;2023-04-15T14:53:57;1.77;;;1.67;;
18445;SDS011;9352;50.888;4.466;2023-04-15T14:56:24;3.17;;;1.85;;
18445;SDS011;9352;50.888;4.466;2023-04-15T14:58:52;2.53;;;2.20;;
18445;SDS011;9352;50.888;4.466;2023-04-15T15:01:19;3.00;;;1.73;;
18445;SDS011;9352;50.888;4.466;2023-04-15T15:03:46;2.35;;;1.52;;
18445;SDS011;9352;50.888;4.466;2023-04-15T15:06:14;3.55;;;1.92;;
18445;SDS011;9352;50.888;4.466;2023-04-15T15:08:41;2.05;;;1.90;;